createdAt,value
2019-01-18T04:01:01.505Z,0.00
2019-01-18T04:02:01.581Z,0.00
2019-01-18T04:03:02.359Z,0.00
2019-01-18T04:04:02.052Z,0.00
2019-01-18T04:05:02.195Z,0.00
2019-01-18T04:06:03.073Z,0.00
2019-01-18T04:07:02.497Z,0.00
2019-01-18T04:08:02.693Z,0.00
2019-01-18T04:09:02.904Z,0.00
2019-01-18T04:10:03.045Z,0.00
2019-01-18T04:11:03.271Z,0.00
2019-01-18T04:12:03.425Z,0.00
2019-01-18T04:13:03.797Z,0.00
2019-01-18T04:14:04.015Z,0.00
2019-01-18T04:15:04.478Z,0.00
2019-01-18T04:16:04.353Z,0.00
2019-01-18T04:17:04.083Z,0.00
2019-01-18T04:18:05.019Z,0.00
2019-01-18T04:19:04.580Z,0.00
2019-01-18T04:20:04.996Z,0.00
2019-01-18T04:21:05.069Z,0.00
2019-01-18T04:22:05.356Z,0.00
2019-01-18T04:23:34.131Z,0.00
2019-01-18T04:24:10.972Z,0.00
2019-01-18T04:28:20.844Z,0.00
2019-01-18T04:29:19.292Z,0.00
2019-01-18T04:32:08.173Z,0.00
2019-01-18T04:33:08.620Z,0.00
2019-01-18T04:34:09.116Z,0.00
2019-01-18T04:35:09.086Z,0.00
2019-01-18T04:36:09.116Z,0.00
2019-01-18T04:37:09.051Z,0.00
2019-01-18T04:38:07.268Z,0.00
2019-01-18T04:39:07.691Z,0.00
2019-01-18T04:40:07.415Z,0.00
2019-01-18T04:41:07.633Z,0.00
2019-01-18T04:42:07.802Z,0.00
2019-01-18T04:43:07.893Z,0.00
2019-01-18T04:44:08.104Z,0.00
2019-01-18T04:45:08.234Z,0.00
2019-01-18T04:46:08.448Z,0.00
2019-01-18T04:47:08.579Z,0.00
2019-01-18T04:48:08.701Z,0.00
2019-01-18T04:49:08.831Z,0.00
2019-01-18T04:50:09.072Z,0.00
2019-01-18T04:51:09.185Z,0.00
2019-01-18T04:52:09.325Z,0.00
2019-01-18T04:53:09.410Z,0.00
2019-01-18T04:54:09.698Z,0.00
2019-01-18T04:55:09.767Z,0.00
2019-01-18T04:56:09.939Z,0.00
2019-01-18T04:57:10.162Z,0.00
2019-01-18T04:58:10.252Z,0.00
2019-01-18T04:59:10.419Z,0.00
2019-01-18T05:00:10.803Z,0.00
2019-01-18T05:01:10.699Z,0.00
2019-01-18T05:02:10.908Z,0.00
2019-01-18T05:03:11.079Z,0.00
2019-01-18T05:04:11.198Z,0.00
2019-01-18T05:05:11.364Z,0.00
2019-01-18T05:06:11.497Z,0.00
2019-01-18T05:07:11.648Z,0.00
2019-01-18T05:08:11.797Z,0.00
2019-01-18T05:09:11.901Z,0.00
2019-01-18T05:10:12.100Z,0.00
2019-01-18T05:11:12.246Z,0.00
2019-01-18T05:12:12.456Z,0.00
2019-01-18T05:13:12.560Z,0.00
2019-01-18T05:14:12.803Z,0.00
2019-01-18T05:15:12.969Z,0.00
2019-01-18T05:16:13.066Z,0.00
2019-01-18T05:17:13.269Z,0.00
2019-01-18T05:18:13.350Z,0.00
2019-01-18T05:19:13.615Z,0.00
2019-01-18T05:20:13.756Z,0.00
2019-01-18T05:21:13.892Z,0.00
2019-01-18T05:22:14.079Z,0.00
2019-01-18T05:23:14.229Z,0.00
2019-01-18T05:24:14.355Z,0.00
2019-01-18T05:25:14.543Z,0.00
2019-01-18T05:26:14.678Z,0.00
2019-01-18T05:27:14.785Z,0.00
2019-01-18T05:28:14.951Z,0.00
2019-01-18T05:29:15.038Z,0.00
2019-01-18T05:30:15.387Z,0.00
2019-01-18T05:31:15.432Z,0.00
2019-01-18T05:32:15.599Z,0.00
2019-01-18T05:33:15.746Z,0.00
2019-01-18T05:34:15.888Z,0.00
2019-01-18T05:35:16.052Z,0.00
2019-01-18T05:36:16.159Z,0.00
2019-01-18T05:37:16.407Z,0.00
2019-01-18T05:38:16.518Z,0.00
2019-01-18T05:39:16.708Z,0.00
2019-01-18T05:40:16.815Z,0.00
2019-01-18T05:41:16.990Z,0.00
2019-01-18T05:42:17.171Z,0.00
2019-01-18T05:43:17.268Z,0.00
2019-01-18T05:44:17.461Z,0.00
2019-01-18T05:45:17.562Z,0.00
2019-01-18T05:46:17.791Z,0.00
2019-01-18T05:47:18.505Z,0.00
2019-01-18T05:48:18.068Z,0.00
2019-01-18T05:49:18.217Z,0.00
2019-01-18T05:50:18.333Z,0.00
2019-01-18T05:51:18.515Z,0.00
2019-01-18T05:52:18.662Z,0.00
2019-01-18T05:53:18.778Z,0.00
2019-01-18T05:54:18.971Z,0.00
2019-01-18T05:55:19.101Z,0.00
2019-01-18T05:56:19.215Z,0.00
2019-01-18T05:57:19.452Z,0.00
2019-01-18T05:58:19.634Z,0.00
2019-01-18T05:59:19.742Z,0.00
2019-01-18T06:00:19.902Z,0.00
2019-01-18T06:01:20.070Z,0.00
2019-01-18T06:02:20.225Z,0.00
2019-01-18T06:03:20.349Z,0.00
2019-01-18T06:04:20.471Z,0.00
2019-01-18T06:05:20.671Z,0.00
2019-01-18T06:06:20.801Z,0.00
2019-01-18T06:07:21.026Z,0.00
2019-01-18T06:08:22.017Z,0.00
2019-01-18T06:09:21.394Z,0.00
2019-01-18T06:10:21.593Z,0.00
2019-01-18T06:11:21.756Z,0.00
2019-01-18T06:12:21.848Z,0.00
2019-01-18T06:13:21.998Z,0.00
2019-01-18T06:14:22.215Z,0.00
2019-01-18T06:15:22.422Z,0.00
2019-01-18T06:16:22.531Z,0.00
2019-01-18T06:17:22.676Z,0.00
2019-01-18T06:18:22.821Z,0.00
2019-01-18T06:19:22.989Z,0.00
2019-01-18T06:20:23.200Z,0.00
2019-01-18T06:21:23.328Z,0.00
2019-01-18T06:22:23.574Z,0.00
2019-01-18T06:23:23.667Z,0.00
2019-01-18T06:24:23.835Z,0.00
2019-01-18T06:25:23.999Z,0.00
2019-01-18T06:26:24.058Z,0.00
2019-01-18T06:27:24.317Z,0.00
2019-01-18T06:28:24.484Z,0.00
2019-01-18T06:29:24.662Z,0.00
2019-01-18T06:30:24.777Z,0.00
2019-01-18T06:31:24.884Z,0.00
2019-01-18T06:32:25.103Z,0.00
2019-01-18T06:33:25.250Z,0.00
2019-01-18T06:34:25.459Z,0.00
2019-01-18T06:35:25.546Z,0.00
2019-01-18T06:36:25.746Z,0.00
2019-01-18T06:37:25.851Z,0.00
2019-01-18T06:38:26.081Z,4.00
2019-01-18T06:39:26.192Z,4.00
2019-01-18T06:40:26.425Z,4.00
2019-01-18T06:41:26.540Z,4.00
2019-01-18T06:42:26.669Z,4.00
2019-01-18T06:43:26.793Z,8.00
2019-01-18T06:44:26.922Z,4.00
2019-01-18T06:45:27.162Z,4.00
2019-01-18T06:46:27.284Z,8.00
2019-01-18T06:47:27.522Z,12.00
2019-01-18T06:48:27.690Z,12.00
2019-01-18T06:49:28.636Z,12.00
2019-01-18T06:50:27.983Z,16.00
2019-01-18T06:51:28.151Z,16.00
2019-01-18T06:52:28.278Z,20.00
2019-01-18T06:53:28.467Z,24.00
2019-01-18T06:54:28.632Z,28.00
2019-01-18T06:55:28.764Z,36.00
2019-01-18T06:56:28.825Z,40.00
2019-01-18T06:57:29.138Z,44.00
2019-01-18T06:58:29.205Z,52.00
2019-01-18T06:59:29.398Z,60.00
2019-01-18T07:00:29.504Z,72.00
2019-01-18T07:01:29.718Z,84.00
2019-01-18T07:02:29.849Z,92.00
2019-01-18T07:03:30.042Z,108.00
2019-01-18T07:04:30.201Z,120.00
2019-01-18T07:05:30.329Z,136.00
2019-01-18T07:06:30.605Z,152.00
2019-01-18T07:07:30.650Z,172.00
2019-01-18T07:08:30.752Z,192.00
2019-01-18T07:09:30.944Z,208.00
2019-01-18T07:10:31.075Z,232.00
2019-01-18T07:11:31.187Z,252.00
2019-01-18T07:12:31.362Z,280.00
2019-01-18T07:13:31.600Z,300.00
2019-01-18T07:14:31.729Z,324.00
2019-01-18T07:15:31.990Z,352.00
2019-01-18T07:16:32.972Z,380.00
2019-01-18T07:17:32.256Z,408.00
2019-01-18T07:18:32.297Z,436.00
2019-01-18T07:19:32.410Z,468.00
2019-01-18T07:20:32.661Z,500.00
2019-01-18T07:21:32.808Z,536.00
2019-01-18T07:22:32.913Z,568.00
2019-01-18T07:23:33.082Z,596.00
2019-01-18T07:24:33.253Z,624.00
2019-01-18T07:25:33.431Z,652.00
2019-01-18T07:26:33.589Z,688.00
2019-01-18T07:27:33.741Z,720.00
2019-01-18T07:28:33.938Z,748.00
2019-01-18T07:29:34.031Z,776.00
2019-01-18T07:30:34.266Z,812.00
2019-01-18T07:31:34.406Z,852.00
2019-01-18T07:32:34.498Z,888.00
2019-01-18T07:33:34.779Z,944.00
2019-01-18T07:34:34.958Z,1012.00
2019-01-18T07:35:35.040Z,1080.00
2019-01-18T07:36:35.217Z,1164.00
2019-01-18T07:37:35.336Z,1244.00
2019-01-18T07:38:35.505Z,1316.00
2019-01-18T07:39:35.642Z,1396.00
2019-01-18T07:40:35.794Z,1460.00
2019-01-18T07:41:35.956Z,1512.00
2019-01-18T07:42:36.162Z,1556.00
2019-01-18T07:43:36.227Z,1600.00
2019-01-18T07:44:36.403Z,1724.00
2019-01-18T07:45:36.532Z,1820.00
2019-01-18T07:46:36.813Z,1948.00
2019-01-18T07:47:36.878Z,2152.00
2019-01-18T07:48:37.088Z,2340.00
2019-01-18T07:49:37.268Z,2420.00
2019-01-18T07:50:37.343Z,2144.00
2019-01-18T07:51:37.595Z,2032.00
2019-01-18T07:52:37.781Z,2020.00
2019-01-18T07:53:37.937Z,2100.00
2019-01-18T07:54:38.179Z,2228.00
2019-01-18T07:55:38.303Z,2196.00
2019-01-18T07:56:38.357Z,2388.00
2019-01-18T07:57:38.659Z,2836.00
2019-01-18T07:58:38.691Z,2760.00
2019-01-18T07:59:38.874Z,2556.00
2019-01-18T08:00:39.023Z,2652.00
2019-01-18T08:01:39.162Z,3248.00
2019-01-18T08:02:39.369Z,2916.00
2019-01-18T08:03:39.502Z,3200.00
2019-01-18T08:04:39.601Z,3020.00
2019-01-18T08:05:39.823Z,3316.00
2019-01-18T08:06:40.054Z,3392.00
2019-01-18T08:07:40.175Z,4140.00
2019-01-18T08:08:40.275Z,3628.00
2019-01-18T08:09:40.551Z,4768.00
2019-01-18T08:10:40.569Z,3796.00
2019-01-18T08:11:40.720Z,4632.00
2019-01-18T08:12:40.936Z,5456.00
2019-01-18T08:13:41.083Z,4768.00
2019-01-18T08:14:41.217Z,6108.00
2019-01-18T08:15:41.445Z,9700.00
2019-01-18T08:16:41.536Z,8208.00
2019-01-18T08:17:41.678Z,3596.00
2019-01-18T08:18:41.792Z,6072.00
2019-01-18T08:19:41.985Z,7136.00
2019-01-18T08:20:42.153Z,3984.00
2019-01-18T08:21:42.279Z,3988.00
2019-01-18T08:22:42.501Z,3576.00
2019-01-18T08:23:42.632Z,3484.00
2019-01-18T08:24:42.732Z,3528.00
2019-01-18T08:25:42.960Z,3588.00
2019-01-18T08:26:43.074Z,3644.00
2019-01-18T08:27:43.226Z,3760.00
2019-01-18T08:28:43.456Z,4156.00
2019-01-18T08:29:43.780Z,4972.00
2019-01-18T08:30:43.768Z,9872.00
2019-01-18T08:31:43.850Z,9632.00
2019-01-18T08:32:44.111Z,8652.00
2019-01-18T08:33:44.279Z,9384.00
2019-01-18T08:34:44.428Z,16256.00
2019-01-18T08:35:44.635Z,18144.00
2019-01-18T08:36:44.860Z,12916.00
2019-01-18T08:37:44.932Z,9720.00
2019-01-18T08:38:45.092Z,7400.00
2019-01-18T08:39:45.210Z,5916.00
2019-01-18T08:40:46.860Z,5660.00
2019-01-18T08:41:45.608Z,5732.00
2019-01-18T08:42:45.796Z,5860.00
2019-01-18T08:43:45.872Z,5984.00
2019-01-18T08:44:46.168Z,6056.00
2019-01-18T08:45:46.296Z,6104.00
2019-01-18T08:46:46.521Z,6136.00
2019-01-18T08:47:46.723Z,6148.00
2019-01-18T08:48:46.794Z,6144.00
2019-01-18T08:49:46.888Z,6120.00
2019-01-18T08:50:47.129Z,6108.00
2019-01-18T08:51:47.401Z,6148.00
2019-01-18T08:52:47.417Z,6208.00
2019-01-18T08:53:47.610Z,6124.00
2019-01-18T08:54:47.803Z,6108.00
2019-01-18T08:55:47.979Z,7156.00
2019-01-18T08:56:48.124Z,9728.00
2019-01-18T08:57:48.237Z,14232.00
2019-01-18T08:58:48.432Z,24480.00
2019-01-18T08:59:48.566Z,24640.00
2019-01-18T09:00:48.754Z,19680.00
2019-01-18T09:01:48.912Z,20032.00
2019-01-18T09:02:49.146Z,22976.00
2019-01-18T09:03:49.199Z,18400.00
2019-01-18T09:04:49.380Z,9920.00
2019-01-18T09:05:49.558Z,15200.00
2019-01-18T09:06:49.715Z,17248.00
2019-01-18T09:07:49.875Z,14944.00
2019-01-18T09:08:50.071Z,10644.00
2019-01-18T09:09:50.186Z,12748.00
2019-01-18T09:10:50.319Z,17696.00
2019-01-18T09:11:50.509Z,20256.00
2019-01-18T09:12:50.686Z,19232.00
2019-01-18T09:13:50.913Z,24288.00
2019-01-18T09:14:50.939Z,25152.00
2019-01-18T09:15:51.170Z,22688.00
2019-01-18T09:16:51.226Z,19808.00
2019-01-18T09:17:51.467Z,27168.00
2019-01-18T09:18:51.609Z,29792.00
2019-01-18T09:19:51.817Z,35424.00
2019-01-18T09:20:51.983Z,40928.00
2019-01-18T09:21:52.127Z,45952.00
2019-01-18T09:22:52.222Z,46592.00
2019-01-18T09:23:52.432Z,36128.00
2019-01-18T09:24:52.529Z,24000.00
2019-01-18T09:25:52.775Z,34304.00
2019-01-18T09:26:52.900Z,35008.00
2019-01-18T09:27:53.052Z,21856.00
2019-01-18T09:28:53.291Z,19840.00
2019-01-18T09:29:53.340Z,23744.00
2019-01-18T09:30:53.509Z,23648.00
2019-01-18T09:31:53.705Z,31648.00
2019-01-18T09:32:53.873Z,42272.00
2019-01-18T09:33:54.051Z,35104.00
2019-01-18T09:34:54.948Z,29184.00
2019-01-18T09:35:54.293Z,39904.00
2019-01-18T09:36:54.539Z,36416.00
2019-01-18T09:37:54.692Z,31424.00
2019-01-18T09:38:54.812Z,39200.00
2019-01-18T09:39:54.993Z,39296.00
2019-01-18T09:40:55.239Z,39168.00
2019-01-18T09:41:55.300Z,36992.00
2019-01-18T09:42:55.475Z,31552.00
2019-01-18T09:43:55.608Z,25728.00
2019-01-18T09:44:55.754Z,36224.00
2019-01-18T09:45:55.987Z,38304.00
2019-01-18T09:46:56.163Z,28800.00
2019-01-18T09:47:56.308Z,31552.00
2019-01-18T09:48:56.458Z,35008.00
2019-01-18T09:49:56.633Z,46048.00
2019-01-18T09:50:56.745Z,48192.00
2019-01-18T09:51:56.858Z,46080.00
2019-01-18T09:52:57.108Z,40768.00
2019-01-18T09:53:57.220Z,30656.00
2019-01-18T09:54:57.384Z,42208.00
2019-01-18T09:55:57.555Z,31328.00
2019-01-18T09:56:57.714Z,31168.00
2019-01-18T09:57:57.902Z,51008.00
2019-01-18T09:58:58.010Z,56128.00
2019-01-18T09:59:58.171Z,55456.00
2019-01-18T10:00:58.381Z,59104.00
2019-01-18T10:01:58.497Z,62688.00
2019-01-18T10:02:58.711Z,56096.00
2019-01-18T10:03:58.879Z,54560.00
2019-01-18T10:04:59.063Z,58880.00
2019-01-18T10:05:59.255Z,65216.00
2019-01-18T10:06:59.410Z,61120.00
2019-01-18T10:07:59.571Z,59744.00
2019-01-18T10:08:59.704Z,64032.00
2019-01-18T10:09:59.833Z,63136.00
2019-01-18T10:11:00.002Z,66880.00
2019-01-18T10:12:00.218Z,69760.00
2019-01-18T10:13:00.363Z,69792.00
2019-01-18T10:14:00.528Z,64704.00
2019-01-18T10:15:00.679Z,58400.00
2019-01-18T10:16:00.898Z,60064.00
2019-01-18T10:17:00.973Z,64800.00
2019-01-18T10:18:01.262Z,65152.00
2019-01-18T10:19:01.378Z,62112.00
2019-01-18T10:20:01.489Z,62688.00
2019-01-18T10:21:01.660Z,66720.00
2019-01-18T10:22:01.846Z,67584.00
2019-01-18T10:23:01.961Z,67776.00
2019-01-18T10:24:02.181Z,69600.00
2019-01-18T10:25:02.486Z,72448.00
2019-01-18T10:26:02.598Z,73408.00
2019-01-18T10:27:02.746Z,71968.00
2019-01-18T10:28:03.030Z,72416.00
2019-01-18T10:29:03.154Z,76352.00
2019-01-18T10:30:03.349Z,77664.00
2019-01-18T10:31:03.555Z,74432.00
2019-01-18T10:32:03.749Z,70208.00
2019-01-18T10:33:03.906Z,72480.00
2019-01-18T10:34:04.038Z,76224.00
2019-01-18T10:35:04.226Z,76352.00
2019-01-18T10:36:04.440Z,73056.00
2019-01-18T10:37:04.523Z,69504.00
2019-01-18T10:38:04.796Z,67840.00
2019-01-18T10:39:04.884Z,68544.00
2019-01-18T10:40:05.028Z,68576.00
2019-01-18T10:41:05.217Z,69568.00
2019-01-18T10:42:05.386Z,72384.00
2019-01-18T10:43:05.570Z,76288.00
2019-01-18T10:44:06.148Z,77856.00
2019-01-18T10:45:05.898Z,74720.00
2019-01-18T10:46:06.056Z,70976.00
2019-01-18T10:47:06.238Z,70592.00
2019-01-18T10:48:06.373Z,76096.00
2019-01-18T10:49:06.513Z,81344.00
2019-01-18T10:50:06.669Z,83264.00
2019-01-18T10:51:06.927Z,78496.00
2019-01-18T10:52:07.070Z,72000.00
2019-01-18T10:53:07.208Z,69696.00
2019-01-18T10:54:07.361Z,74752.00
2019-01-18T10:55:07.508Z,79776.00
2019-01-18T10:56:07.752Z,78304.00
2019-01-18T10:57:07.907Z,75552.00
2019-01-18T10:58:08.102Z,73440.00
2019-01-18T10:59:08.269Z,76736.00
2019-01-18T11:00:08.441Z,75296.00
2019-01-18T11:01:08.772Z,76320.00
2019-01-18T11:02:08.810Z,81984.00
2019-01-18T11:03:09.148Z,85536.00
2019-01-18T11:04:09.155Z,87776.00
2019-01-18T11:05:09.375Z,88768.00
2019-01-18T11:06:09.506Z,86432.00
2019-01-18T11:07:09.752Z,78560.00
2019-01-18T11:08:09.873Z,68768.00
2019-01-18T11:09:10.062Z,66976.00
2019-01-18T11:10:10.313Z,76352.00
2019-01-18T11:11:10.405Z,92896.00
2019-01-18T11:12:10.576Z,103648.00
2019-01-18T11:13:10.782Z,106016.00
2019-01-18T11:14:10.991Z,100640.00
2019-01-18T11:15:11.066Z,95136.00
2019-01-18T11:16:11.294Z,86560.00
2019-01-18T11:17:11.464Z,76576.00
2019-01-18T11:18:11.683Z,68992.00
2019-01-18T11:19:11.758Z,66784.00
2019-01-18T11:20:11.902Z,71680.00
2019-01-18T11:21:13.028Z,79040.00
2019-01-18T11:22:12.329Z,85600.00
2019-01-18T11:23:12.508Z,88640.00
2019-01-18T11:24:12.696Z,91648.00
2019-01-18T11:25:12.956Z,88928.00
2019-01-18T11:26:13.151Z,84128.00
2019-01-18T11:27:13.336Z,84128.00
2019-01-18T11:28:13.474Z,86976.00
2019-01-18T11:29:13.757Z,91232.00
2019-01-18T11:30:13.884Z,92352.00
2019-01-18T11:31:13.985Z,92192.00
2019-01-18T11:32:14.239Z,91360.00
2019-01-18T11:33:14.416Z,90688.00
2019-01-18T11:34:14.591Z,91744.00
2019-01-18T11:35:14.801Z,92640.00
2019-01-18T11:36:14.918Z,92992.00
2019-01-18T11:37:15.086Z,93824.00
2019-01-18T11:38:15.289Z,92928.00
2019-01-18T11:39:15.384Z,93536.00
2019-01-18T11:40:15.585Z,92544.00
2019-01-18T11:41:15.823Z,88192.00
2019-01-18T11:42:16.069Z,89408.00
2019-01-18T11:43:16.192Z,89408.00
2019-01-18T11:44:16.389Z,88064.00
2019-01-18T11:45:16.511Z,93184.00
2019-01-18T11:46:16.711Z,99616.00
2019-01-18T11:47:16.914Z,101536.00
2019-01-18T11:48:17.086Z,98336.00
2019-01-18T11:49:17.186Z,92800.00
2019-01-18T11:50:17.399Z,86080.00
2019-01-18T11:51:17.602Z,87168.00
2019-01-18T11:52:17.828Z,89568.00
2019-01-18T11:53:18.024Z,87872.00
2019-01-18T11:54:18.053Z,83872.00
2019-01-18T11:55:18.314Z,85632.00
2019-01-18T11:56:18.413Z,88000.00
2019-01-18T11:57:18.634Z,93344.00
2019-01-18T11:58:18.772Z,97472.00
2019-01-18T11:59:19.062Z,97632.00
2019-01-18T12:00:19.108Z,94208.00
2019-01-18T12:01:19.348Z,91488.00
2019-01-18T12:02:22.217Z,92672.00
2019-01-18T12:03:19.673Z,94560.00
2019-01-18T12:04:19.910Z,96864.00
2019-01-18T12:05:20.118Z,97632.00
2019-01-18T12:06:20.186Z,95744.00
2019-01-18T12:07:20.404Z,94400.00
2019-01-18T12:08:20.651Z,92864.00
2019-01-18T12:09:20.766Z,92256.00
2019-01-18T12:10:20.870Z,91168.00
2019-01-18T12:11:21.155Z,91872.00
2019-01-18T12:12:21.316Z,92704.00
2019-01-18T12:13:21.363Z,95488.00
2019-01-18T12:14:21.658Z,101120.00
2019-01-18T12:15:21.841Z,106528.00
2019-01-18T12:16:22.106Z,104608.00
2019-01-18T12:17:22.090Z,98784.00
2019-01-18T12:18:22.321Z,92256.00
2019-01-18T12:19:22.422Z,89056.00
2019-01-18T12:20:22.721Z,85376.00
2019-01-18T12:21:22.922Z,91136.00
2019-01-18T12:22:22.957Z,99520.00
2019-01-18T12:23:23.198Z,102432.00
2019-01-18T12:24:23.462Z,101280.00
2019-01-18T12:25:23.461Z,97984.00
2019-01-18T12:26:23.642Z,97024.00
2019-01-18T12:27:23.860Z,98688.00
2019-01-18T12:28:23.931Z,100800.00
2019-01-18T12:29:24.216Z,98912.00
2019-01-18T12:30:24.296Z,94144.00
2019-01-18T12:31:24.521Z,90976.00
2019-01-18T12:32:28.824Z,92992.00
2019-01-18T12:33:24.892Z,97344.00
2019-01-18T12:34:25.105Z,101120.00
2019-01-18T12:35:25.234Z,100064.00
2019-01-18T12:36:25.454Z,95680.00
2019-01-18T12:37:25.620Z,93440.00
2019-01-18T12:38:25.921Z,97408.00
2019-01-18T12:39:25.986Z,100032.00
2019-01-18T12:40:26.114Z,98816.00
2019-01-18T12:41:26.306Z,94240.00
2019-01-18T12:42:26.587Z,92096.00
2019-01-18T12:43:26.665Z,93984.00
2019-01-18T12:44:26.887Z,96512.00
2019-01-18T12:45:26.989Z,98080.00
2019-01-18T12:46:27.187Z,92896.00
2019-01-18T12:47:27.395Z,88992.00
2019-01-18T12:48:27.629Z,85664.00
2019-01-18T12:49:27.799Z,82976.00
2019-01-18T12:50:27.985Z,83360.00
2019-01-18T12:51:28.126Z,89504.00
2019-01-18T12:52:28.286Z,92544.00
2019-01-18T12:53:29.484Z,94912.00
2019-01-18T12:54:28.600Z,91104.00
2019-01-18T12:55:28.924Z,88128.00
2019-01-18T12:56:29.051Z,90048.00
2019-01-18T12:57:29.181Z,92448.00
2019-01-18T12:58:29.378Z,92800.00
2019-01-18T12:59:29.466Z,88896.00
2019-01-18T13:00:29.648Z,84512.00
2019-01-18T13:01:29.752Z,81280.00
2019-01-18T13:02:35.342Z,81088.00
2019-01-18T13:03:30.159Z,82656.00
2019-01-18T13:04:30.353Z,84128.00
2019-01-18T13:05:30.529Z,85536.00
2019-01-18T13:06:30.731Z,87040.00
2019-01-18T13:07:30.903Z,83648.00
2019-01-18T13:08:31.080Z,81024.00
2019-01-18T13:09:31.231Z,77792.00
2019-01-18T13:10:31.404Z,64320.00
2019-01-18T13:11:31.489Z,59904.00
2019-01-18T13:12:31.754Z,68000.00
2019-01-18T13:13:31.907Z,67872.00
2019-01-18T13:14:32.026Z,67840.00
2019-01-18T13:15:32.209Z,74208.00
2019-01-18T13:16:32.380Z,66144.00
2019-01-18T13:17:32.605Z,62080.00
2019-01-18T13:18:32.723Z,69344.00
2019-01-18T13:19:32.923Z,60960.00
2019-01-18T13:20:33.141Z,59456.00
2019-01-18T13:21:33.308Z,66208.00
2019-01-18T13:22:33.479Z,62112.00
2019-01-18T13:23:33.548Z,63808.00
2019-01-18T13:24:33.862Z,64768.00
2019-01-18T13:25:34.016Z,73568.00
2019-01-18T13:26:34.134Z,68736.00
2019-01-18T13:27:34.296Z,56384.00
2019-01-18T13:28:34.506Z,46272.00
2019-01-18T13:29:34.641Z,45600.00
2019-01-18T13:30:34.794Z,34528.00
2019-01-18T13:31:34.999Z,26144.00
2019-01-18T13:32:35.098Z,27264.00
2019-01-18T13:33:35.328Z,30208.00
2019-01-18T13:34:35.518Z,40416.00
2019-01-18T13:35:35.649Z,36352.00
2019-01-18T13:36:35.804Z,45440.00
2019-01-18T13:37:35.976Z,13372.00
2019-01-18T13:38:36.215Z,8456.00
2019-01-18T13:39:36.412Z,16640.00
2019-01-18T13:40:36.582Z,42848.00
2019-01-18T13:41:36.673Z,51616.00
2019-01-18T13:42:36.899Z,65600.00
2019-01-18T13:43:37.061Z,58464.00
2019-01-18T13:44:43.394Z,48320.00
2019-01-18T13:45:37.329Z,38912.00
2019-01-18T13:46:37.567Z,49024.00
2019-01-18T13:47:37.723Z,51040.00
2019-01-18T13:48:37.903Z,49760.00
2019-01-18T13:49:38.034Z,58816.00
2019-01-18T13:50:38.236Z,57184.00
2019-01-18T13:51:38.393Z,61984.00
2019-01-18T13:52:38.521Z,54912.00
2019-01-18T13:53:38.731Z,52992.00
2019-01-18T13:54:38.892Z,56544.00
2019-01-18T13:55:39.093Z,60608.00
2019-01-18T13:56:39.246Z,67936.00
2019-01-18T13:57:39.375Z,51136.00
2019-01-18T13:58:39.559Z,32704.00
2019-01-18T13:59:39.702Z,33664.00
2019-01-18T14:00:39.942Z,39072.00
2019-01-18T14:01:40.076Z,47744.00
2019-01-18T14:02:40.672Z,59488.00
2019-01-18T14:03:40.389Z,56256.00
2019-01-18T14:04:40.560Z,47904.00
2019-01-18T14:05:40.774Z,46368.00
2019-01-18T14:06:40.867Z,54176.00
2019-01-18T14:07:41.048Z,57280.00
2019-01-18T14:08:41.263Z,49376.00
2019-01-18T14:09:41.433Z,48768.00
2019-01-18T14:10:41.654Z,46720.00
2019-01-18T14:11:41.736Z,53312.00
2019-01-18T14:12:41.959Z,58240.00
2019-01-18T14:13:42.128Z,52064.00
2019-01-18T14:14:42.305Z,46624.00
2019-01-18T14:15:42.410Z,43776.00
2019-01-18T14:16:42.609Z,42176.00
2019-01-18T14:17:42.843Z,49024.00
2019-01-18T14:18:42.983Z,55072.00
2019-01-18T14:19:43.118Z,54464.00
2019-01-18T14:20:43.296Z,45408.00
2019-01-18T14:21:43.499Z,25536.00
2019-01-18T14:22:43.584Z,26400.00
2019-01-18T14:23:43.838Z,32512.00
2019-01-18T14:24:43.938Z,38720.00
2019-01-18T14:25:44.182Z,42432.00
2019-01-18T14:26:44.368Z,39232.00
2019-01-18T14:27:44.542Z,43456.00
2019-01-18T14:28:44.637Z,49664.00
2019-01-18T14:29:44.794Z,56864.00
2019-01-18T14:30:44.989Z,52640.00
2019-01-18T14:31:45.144Z,42112.00
2019-01-18T14:32:45.287Z,35136.00
2019-01-18T14:33:45.421Z,37472.00
2019-01-18T14:34:45.667Z,34944.00
2019-01-18T14:35:45.816Z,33408.00
2019-01-18T14:36:45.933Z,37568.00
2019-01-18T14:37:46.143Z,35712.00
2019-01-18T14:38:46.305Z,23168.00
2019-01-18T14:39:46.421Z,17888.00
2019-01-18T14:40:46.636Z,30688.00
2019-01-18T14:41:46.820Z,35680.00
2019-01-18T14:42:46.979Z,22112.00
2019-01-18T14:43:47.097Z,18304.00
2019-01-18T14:44:47.335Z,16448.00
2019-01-18T14:45:47.510Z,17408.00
2019-01-18T14:46:47.665Z,23776.00
2019-01-18T14:47:47.774Z,24192.00
2019-01-18T14:48:47.987Z,23456.00
2019-01-18T14:49:48.139Z,22080.00
2019-01-18T14:50:48.293Z,22048.00
2019-01-18T14:51:48.451Z,17536.00
2019-01-18T14:52:48.667Z,14816.00
2019-01-18T14:53:48.845Z,8472.00
2019-01-18T14:54:49.038Z,11084.00
2019-01-18T14:55:49.153Z,16896.00
2019-01-18T14:56:49.286Z,16448.00
2019-01-18T14:57:49.458Z,16640.00
2019-01-18T14:58:49.653Z,22752.00
2019-01-18T14:59:49.769Z,24096.00
2019-01-18T15:00:49.986Z,18560.00
2019-01-18T15:01:50.194Z,18496.00
2019-01-18T15:02:50.341Z,21888.00
2019-01-18T15:03:54.067Z,17856.00
2019-01-18T15:04:50.665Z,11276.00
2019-01-18T15:05:50.797Z,6696.00
2019-01-18T15:06:50.956Z,4136.00
2019-01-18T15:07:52.114Z,3612.00
2019-01-18T15:08:51.309Z,3324.00
2019-01-18T15:09:51.396Z,3112.00
2019-01-18T15:10:51.626Z,2956.00
2019-01-18T15:11:51.695Z,2828.00
2019-01-18T15:12:51.872Z,2720.00
2019-01-18T15:13:52.059Z,2612.00
2019-01-18T15:14:52.230Z,2496.00
2019-01-18T15:15:52.377Z,2388.00
2019-01-18T15:16:52.505Z,2276.00
2019-01-18T15:17:52.745Z,2172.00
2019-01-18T15:18:52.898Z,2076.00
2019-01-18T15:19:53.044Z,1992.00
2019-01-18T15:20:53.242Z,1908.00
2019-01-18T15:21:53.389Z,1832.00
2019-01-18T15:22:53.556Z,1752.00
2019-01-18T15:23:53.723Z,1676.00
2019-01-18T15:24:53.901Z,1600.00
2019-01-18T15:25:53.967Z,1536.00
2019-01-18T15:26:54.202Z,1472.00
2019-01-18T15:27:54.301Z,1404.00
2019-01-18T15:28:54.440Z,1340.00
2019-01-18T15:29:54.696Z,1280.00
2019-01-18T15:30:54.783Z,1220.00
2019-01-18T15:31:54.969Z,1164.00
2019-01-18T15:32:55.085Z,1108.00
2019-01-18T15:33:56.369Z,1056.00
2019-01-18T15:34:55.438Z,1000.00
2019-01-18T15:35:55.553Z,948.00
2019-01-18T15:36:55.693Z,900.00
2019-01-18T15:37:55.894Z,852.00
2019-01-18T15:38:56.022Z,812.00
2019-01-18T15:39:56.231Z,764.00
2019-01-18T15:40:56.438Z,724.00
2019-01-18T15:41:56.528Z,680.00
2019-01-18T15:42:56.750Z,636.00
2019-01-18T15:43:56.865Z,592.00
2019-01-18T15:44:57.037Z,556.00
2019-01-18T15:45:57.158Z,512.00
2019-01-18T15:46:57.356Z,472.00
2019-01-18T15:47:57.527Z,432.00
2019-01-18T15:48:57.732Z,396.00
2019-01-18T15:49:57.835Z,368.00
2019-01-18T15:50:58.028Z,336.00
2019-01-18T15:51:58.112Z,312.00
2019-01-18T15:52:58.346Z,284.00
2019-01-18T15:53:58.441Z,264.00
2019-01-18T15:54:58.655Z,240.00
2019-01-18T15:55:58.797Z,216.00
2019-01-18T15:56:58.907Z,196.00
2019-01-18T15:57:59.083Z,176.00
2019-01-18T15:58:59.194Z,156.00
2019-01-18T15:59:59.362Z,140.00
2019-01-18T16:00:59.556Z,124.00
2019-01-18T16:01:59.714Z,112.00
2019-01-18T16:02:59.862Z,100.00
2019-01-18T16:04:00.037Z,88.00
2019-01-18T16:05:00.223Z,76.00
2019-01-18T16:06:00.389Z,64.00
2019-01-18T16:07:00.490Z,56.00
2019-01-18T16:08:00.685Z,48.00
2019-01-18T16:09:00.827Z,44.00
2019-01-18T16:10:00.969Z,36.00
2019-01-18T16:11:01.194Z,32.00
2019-01-18T16:12:01.347Z,28.00
2019-01-18T16:13:01.520Z,24.00
2019-01-18T16:14:01.636Z,20.00
2019-01-18T16:15:01.761Z,20.00
2019-01-18T16:16:01.969Z,16.00
2019-01-18T16:17:02.205Z,12.00
2019-01-18T16:18:02.323Z,12.00
2019-01-18T16:19:02.489Z,8.00
2019-01-18T16:20:02.662Z,4.00